Bonum — CRA5490 — position and weather

sailwx.info

Track history (hours):
 
Tides and Currents Weather Stations Pressure Air Temp Water Temp Dewpoint Dewpoint Depression Visibility Wind Speed Wind Dir Waves Ship Positions

Bonum

Last reported at 2017-Sep-22 02:00 UTC. Time now 2017-Nov-20 19:28 UTC.
Position N 38°13' E 015°15'.
Warning: this ship's position is 59 days out of date.

Length 38 m; draft 3.2 m.

MMSI: 255910770.

Date/timePositionNaut miles runAvg speedWind from/ knotsBaromVisibWave heightAir tempDewpointWater temp
2017-Sep-22 02:00N 38°13' E 015°15'0 0.0
2017-Sep-22 01:30N 38°13' E 015°15'0 0.0
2017-Sep-22 01:00N 38°13' E 015°15'0 0.0
2017-Sep-22 00:30N 38°13' E 015°15'0 0.0
2017-Sep-22 00:00N 38°13' E 015°15'0 0.0
2017-Sep-21 23:30N 38°13' E 015°15'0 0.0
2017-Sep-21 23:00N 38°13' E 015°15'0 0.0
2017-Sep-21 22:30N 38°13' E 015°15'0 0.0
2017-Sep-21 22:00N 38°13' E 015°15'0 0.0
2017-Sep-21 21:30N 38°13' E 015°15'0 0.0
2017-Sep-21 21:00N 38°13' E 015°15'0 0.0
2017-Sep-21 20:30N 38°13' E 015°15'0 0.0
2017-Sep-21 20:00N 38°13' E 015°15'0 0.0
2017-Sep-21 19:30N 38°13' E 015°15'0 0.0
2017-Sep-21 19:00N 38°13' E 015°15'0 0.0
2017-Sep-21 18:30N 38°13' E 015°15'0 0.0
2017-Sep-21 18:00N 38°13' E 015°15'0 0.0
2017-Sep-21 17:30N 38°13' E 015°15'0 0.0
2017-Sep-21 17:00N 38°13' E 015°15'0 0.0
2017-Sep-21 16:30N 38°13' E 015°15'0 0.0
2017-Sep-21 16:00N 38°13' E 015°15'0 0.0
2017-Sep-21 15:30N 38°13' E 015°15'0 0.0
2017-Sep-21 15:00N 38°13' E 015°15'0 0.0
2017-Sep-21 14:30N 38°13' E 015°15'0 0.0
2017-Sep-21 14:00N 38°13' E 015°15'0 0.0
2017-Sep-21 13:30N 38°13' E 015°15'0 0.0
2017-Sep-21 13:00N 38°13' E 015°15'0 0.0
2017-Sep-21 12:30N 38°13' E 015°15'0 0.0
2017-Sep-21 12:00N 38°13' E 015°15'0 0.0
2017-Sep-21 11:30N 38°13' E 015°15'0 0.6
2017-Sep-21 11:00N 38°13' E 015°15'4 7.7
2017-Sep-21 10:30N 38°17' E 015°15'5 9.6
2017-Sep-21 10:00N 38°20' E 015°10'510.0
2017-Sep-21 09:29N 38°23' E 015°05'510.3
2017-Sep-21 09:00N 38°26' E 014°60'2 4.4
2017-Sep-21 08:29N 38°28' E 014°58'0 0.0
2017-Sep-21 07:27N 38°28' E 014°58'0 0.0
2017-Sep-21 05:35N 38°28' E 014°58'0 0.0
2017-Sep-21 05:29N 38°28' E 014°58'0 0.0
2017-Sep-21 04:58N 38°28' E 014°58'0 0.0
2017-Sep-21 04:28N 38°28' E 014°58'0 0.1
2017-Sep-21 03:55N 38°28' E 014°58'0 0.0
2017-Sep-21 03:23N 38°28' E 014°58'0 0.0
2017-Sep-21 02:50N 38°28' E 014°58'0 0.0
2017-Sep-21 02:13N 38°28' E 014°58'0 0.0
2017-Sep-21 01:57N 38°28' E 014°58'0 0.0
2017-Sep-21 01:20N 38°28' E 014°58'0 0.1
2017-Sep-21 01:00N 38°28' E 014°58'0 0.0
2017-Sep-21 00:23N 38°28' E 014°58'0 0.1
2017-Sep-20 23:59N 38°28' E 014°58'0 0.0
2017-Sep-20 23:30N 38°28' E 014°58'0 0.0
2017-Sep-20 23:00N 38°28' E 014°58'0 0.0
2017-Sep-20 22:30N 38°28' E 014°58'0 0.0
2017-Sep-20 22:00N 38°28' E 014°58'0 0.0
2017-Sep-20 21:18N 38°28' E 014°58'0 0.1
2017-Sep-20 21:00N 38°28' E 014°58'0 0.0
2017-Sep-20 20:29N 38°28' E 014°58'0 0.0
2017-Sep-20 20:00N 38°28' E 014°58'0 0.0
2017-Sep-20 19:29N 38°28' E 014°58'0 0.0
2017-Sep-20 18:59N 38°28' E 014°58'0 0.0
2017-Sep-20 18:30N 38°28' E 014°58'0 0.0
2017-Sep-20 17:59N 38°28' E 014°58'0 0.0
2017-Sep-20 17:30N 38°28' E 014°58'0 0.0
2017-Sep-20 16:58N 38°28' E 014°58'0 0.0
2017-Sep-20 16:26N 38°28' E 014°58'0 0.1
2017-Sep-20 15:59N 38°28' E 014°58'1 2.8
2017-Sep-20 15:30N 38°28' E 014°59'5 9.9
2017-Sep-20 14:58N 38°33' E 015°01'6 2.0
2017-Sep-20 12:11N 38°38' E 015°05'0 0.1
2017-Sep-20 11:55N 38°38' E 015°05'0 0.0
2017-Sep-20 11:10N 38°38' E 015°05'0 0.0
2017-Sep-20 10:17N 38°38' E 015°05'0 0.0
2017-Sep-20 09:50N 38°38' E 015°05'0 0.1
2017-Sep-20 09:29N 38°38' E 015°05'0 0.0
2017-Sep-20 08:20N 38°38' E 015°05'1 2.7
2017-Sep-20 08:00N 38°38' E 015°04'0 0.0
2017-Sep-20 07:25N 38°38' E 015°04'0 0.0
2017-Sep-20 06:59N 38°38' E 015°04'0 0.0
2017-Sep-20 06:29N 38°38' E 015°04'0 0.0
2017-Sep-20 05:58N 38°38' E 015°04'0 0.0
2017-Sep-20 05:28N 38°38' E 015°04'0 0.0
2017-Sep-20 04:58N 38°38' E 015°04'0 0.0
2017-Sep-20 04:30N 38°38' E 015°04'0 0.0
2017-Sep-20 04:01N 38°38' E 015°04'0 0.0
2017-Sep-20 03:27N 38°38' E 015°04'0 0.1
2017-Sep-20 02:59N 38°38' E 015°04'0 0.1
2017-Sep-20 02:29N 38°38' E 015°04'0 0.1
2017-Sep-20 01:58N 38°38' E 015°04'0 0.1
2017-Sep-20 01:30N 38°38' E 015°04'0 0.1
2017-Sep-20 00:58N 38°38' E 015°04'0 0.1
2017-Sep-20 00:30N 38°38' E 015°04'0 0.0
2017-Sep-19 23:59N 38°38' E 015°04'0 0.0
2017-Sep-19 23:29N 38°38' E 015°04'0 0.0
2017-Sep-19 23:00N 38°38' E 015°04'0 0.0
2017-Sep-19 22:30N 38°38' E 015°04'0 0.0
2017-Sep-19 22:00N 38°38' E 015°04'0 0.0
2017-Sep-19 21:30N 38°38' E 015°04'0 0.0
2017-Sep-19 20:55N 38°38' E 015°04'0 0.0
2017-Sep-19 20:30N 38°38' E 015°04'0 0.1
2017-Sep-19 20:00N 38°38' E 015°04'0 0.1
2017-Sep-19 19:29N 38°38' E 015°04'0 0.0
2017-Sep-19 18:50N 38°38' E 015°04'0 0.0
2017-Sep-19 18:30N 38°38' E 015°04'0 0.0
2017-Sep-19 17:54N 38°38' E 015°04'0 0.0
2017-Sep-19 17:25N 38°38' E 015°04'0 0.0
2017-Sep-19 16:52N 38°37' E 015°04'0 0.0
2017-Sep-19 15:45N 38°38' E 015°04'0 0.5
2017-Sep-19 15:22N 38°37' E 015°04'3 8.6
2017-Sep-19 15:00N 38°40' E 015°06'510.1
2017-Sep-19 14:30N 38°44' E 015°11'4 7.7
2017-Sep-19 14:01N 38°47' E 015°14'1 0.2
2017-Sep-19 09:56N 38°47' E 015°14'23 8.2
2017-Sep-19 07:04N 38°28' E 014°58'0 0.0
2017-Sep-19 01:52N 38°28' E 014°58'0 0.0
2017-Sep-18 14:34N 38°28' E 014°58'0 0.0
2017-Sep-18 14:28N 38°28' E 014°58'0 0.0
2017-Sep-18 13:23N 38°28' E 014°58'0 0.3
2017-Sep-18 12:19N 38°28' E 014°58'0 0.0
2017-Sep-18 11:52N 38°28' E 014°58'0 0.0
2017-Sep-18 11:26N 38°28' E 014°58'0 0.0
2017-Sep-18 10:42N 38°28' E 014°58'0 0.0
2017-Sep-18 09:56N 38°28' E 014°58'3 5.5
2017-Sep-18 09:22N 38°25' E 014°58'3 9.8
2017-Sep-18 09:00N 38°23' E 015°02'510.5
2017-Sep-18 08:30N 38°21' E 015°08'510.3
2017-Sep-18 08:00N 38°18' E 015°13'5 9.1
2017-Sep-18 07:31N 38°14' E 015°15'1 0.6
2017-Sep-18 06:04N 38°13' E 015°15'0 0.0
2017-Sep-18 06:00N 38°13' E 015°15'0 0.0
2017-Sep-18 05:30N 38°13' E 015°15'0 0.0
2017-Sep-18 05:00N 38°13' E 015°15'0 0.0
2017-Sep-18 04:30N 38°13' E 015°15'0 0.0
2017-Sep-18 04:00N 38°13' E 015°15'0 0.0
2017-Sep-18 03:30N 38°13' E 015°15'0 0.0
2017-Sep-18 03:00N 38°13' E 015°15'0 0.0
2017-Sep-18 02:30N 38°13' E 015°15'0 0.0
2017-Sep-18 02:00N 38°13' E 015°15'0 0.0
2017-Sep-18 01:30N 38°13' E 015°15'0 0.0
2017-Sep-18 01:00N 38°13' E 015°15'0 0.0
2017-Sep-18 00:30N 38°13' E 015°15'0 0.0
2017-Sep-18 00:00N 38°13' E 015°15'0 0.0
2017-Sep-17 23:30N 38°13' E 015°15'0 0.0
2017-Sep-17 23:00N 38°13' E 015°15'0 0.0
2017-Sep-17 22:30N 38°13' E 015°15'0 0.0
2017-Sep-17 22:00N 38°13' E 015°15'0 0.0
2017-Sep-17 21:30N 38°13' E 015°15'0 0.0
2017-Sep-17 21:00N 38°13' E 015°15'0 0.0
2017-Sep-17 20:30N 38°13' E 015°15'0 0.0
2017-Sep-17 20:00N 38°13' E 015°15'0 0.0
2017-Sep-17 19:30N 38°13' E 015°15'0 0.0
2017-Sep-17 19:00N 38°13' E 015°15'0 0.0
2017-Sep-17 18:30N 38°13' E 015°15'0 0.0
2017-Sep-17 18:00N 38°13' E 015°15'0 0.0
2017-Sep-17 17:30N 38°13' E 015°15'0 0.0
2017-Sep-17 17:00N 38°13' E 015°15'0 0.0
2017-Sep-17 16:30N 38°13' E 015°15'0 0.0
2017-Sep-17 16:00N 38°13' E 015°15'0 0.0
2017-Sep-17 13:57N 38°13' E 015°15'0 0.0
2017-Sep-17 13:30N 38°13' E 015°15'0 0.0
2017-Sep-17 13:00N 38°13' E 015°15'0 0.0
2017-Sep-17 12:30N 38°13' E 015°15'0 0.0
2017-Sep-17 12:00N 38°13' E 015°15'0 0.0
2017-Sep-17 11:30N 38°13' E 015°15'0 0.0
2017-Sep-17 11:00N 38°13' E 015°15'0 0.0
2017-Sep-17 10:30N 38°13' E 015°15'0 0.0
2017-Sep-17 10:00N 38°13' E 015°15'0 0.0
2017-Sep-17 09:30N 38°13' E 015°15'0 0.0
2017-Sep-17 09:00N 38°13' E 015°15'0 0.0
2017-Sep-17 08:30N 38°13' E 015°15'0 0.0
2017-Sep-17 08:00N 38°13' E 015°15'0 0.0
2017-Sep-17 07:30N 38°13' E 015°15'0 0.0
2017-Sep-17 07:00N 38°13' E 015°15'0 0.0
2017-Sep-17 06:30N 38°13' E 015°15'0 0.0
2017-Sep-17 06:00N 38°13' E 015°15'0 0.0
2017-Sep-17 05:30N 38°13' E 015°15'0 0.0
2017-Sep-17 05:00N 38°13' E 015°15'0 0.0
2017-Sep-17 04:30N 38°13' E 015°15'0 0.0
2017-Sep-17 04:00N 38°13' E 015°15'0 0.0
2017-Sep-17 03:30N 38°13' E 015°15'0 0.0
2017-Sep-17 03:00N 38°13' E 015°15'0 0.0
2017-Sep-17 02:30N 38°13' E 015°15'0 0.0
2017-Sep-17 02:00N 38°13' E 015°15'0 0.0
2017-Sep-17 01:30N 38°13' E 015°15'0 0.0
2017-Sep-17 01:00N 38°13' E 015°15'0 0.0
2017-Sep-17 00:30N 38°13' E 015°15'0 0.0
2017-Sep-17 00:00N 38°13' E 015°15'0 0.0
2017-Sep-16 23:30N 38°13' E 015°15'0 0.0
2017-Sep-16 23:00N 38°13' E 015°15'0 0.0
2017-Sep-16 22:30N 38°13' E 015°15'0 0.0
2017-Sep-16 22:00N 38°13' E 015°15'0 0.0
2017-Sep-16 21:30N 38°13' E 015°15'0 0.0
2017-Sep-16 21:00N 38°13' E 015°15'0 0.0
2017-Sep-16 20:30N 38°13' E 015°15'0 0.0
2017-Sep-16 20:00N 38°13' E 015°15'0 0.0
2017-Sep-16 19:30N 38°13' E 015°15'0 0.0
2017-Sep-16 19:00N 38°13' E 015°15'0 0.0
2017-Sep-16 18:30N 38°13' E 015°15'0 0.0
2017-Sep-16 18:00N 38°13' E 015°15'0 0.0
2017-Sep-16 17:30N 38°13' E 015°15'0 0.0
2017-Sep-16 17:00N 38°13' E 015°15'0 0.0
2017-Sep-16 16:30N 38°13' E 015°15'0 0.0
2017-Sep-16 16:00N 38°13' E 015°15'0 0.0
2017-Sep-16 15:30N 38°13' E 015°15'0 0.0
2017-Sep-16 15:00N 38°13' E 015°15'0 0.0
2017-Sep-16 14:30N 38°13' E 015°15'0 0.0
2017-Sep-16 14:00N 38°13' E 015°15'0 0.0
2017-Sep-16 13:30N 38°13' E 015°15'0 0.0
2017-Sep-16 13:00N 38°13' E 015°15'0 0.0
2017-Sep-16 12:30N 38°13' E 015°15'0 0.0
2017-Sep-16 12:00N 38°13' E 015°15'0 0.0
2017-Sep-16 11:30N 38°13' E 015°15'0 0.0
2017-Sep-16 11:00N 38°13' E 015°15'0 0.0
2017-Sep-16 10:30N 38°13' E 015°15'0 0.0
2017-Sep-16 09:14N 38°13' E 015°15'0 0.0
2017-Sep-16 09:00N 38°13' E 015°15'0 0.0
2017-Sep-16 08:30N 38°13' E 015°15'0 0.0
2017-Sep-16 08:00N 38°13' E 015°15'0 0.0
2017-Sep-16 07:30N 38°13' E 015°15'0 0.0
2017-Sep-16 07:00N 38°13' E 015°15'0 0.0
2017-Sep-16 06:30N 38°13' E 015°15'0 0.0
2017-Sep-16 06:00N 38°13' E 015°15'0 0.0
2017-Sep-16 05:30N 38°13' E 015°15'0 0.0
2017-Sep-16 05:00N 38°13' E 015°15'0 0.0
2017-Sep-16 04:30N 38°13' E 015°15'0 0.0
2017-Sep-16 04:00N 38°13' E 015°15'0 0.0
2017-Sep-16 03:30N 38°13' E 015°15'0 0.0
2017-Sep-16 03:00N 38°13' E 015°15'0 0.0
2017-Sep-16 02:30N 38°13' E 015°15'0 0.0
2017-Sep-16 02:00N 38°13' E 015°15'0 0.0
2017-Sep-16 01:30N 38°13' E 015°15'0 0.0
2017-Sep-16 01:00N 38°13' E 015°15'0 0.0
2017-Sep-16 00:30N 38°13' E 015°15'0 0.0
2017-Sep-16 00:00N 38°13' E 015°15'0 0.0
2017-Sep-15 23:30N 38°13' E 015°15'0 0.0
2017-Sep-15 23:00N 38°13' E 015°15'0 0.0
2017-Sep-15 22:30N 38°13' E 015°15'0 0.0
2017-Sep-15 22:00N 38°13' E 015°15'0 0.0
2017-Sep-15 21:30N 38°13' E 015°15'0 0.0
2017-Sep-15 21:00N 38°13' E 015°15'0 0.0
2017-Sep-15 20:30N 38°13' E 015°15'0 0.0
2017-Sep-15 20:00N 38°13' E 015°15'0 0.0
2017-Sep-15 19:30N 38°13' E 015°15'0 0.0
2017-Sep-15 19:00N 38°13' E 015°15'0 0.0
2017-Sep-15 18:30N 38°13' E 015°15'0 0.0
2017-Sep-15 18:00N 38°13' E 015°15'0 0.0
2017-Sep-15 17:30N 38°13' E 015°15'0 0.0
2017-Sep-15 17:00N 38°13' E 015°15'0 0.0
2017-Sep-15 16:30N 38°13' E 015°15'0 0.0
2017-Sep-15 16:00N 38°13' E 015°15'0 0.0
2017-Sep-15 15:30N 38°13' E 015°15'0 0.0
2017-Sep-15 15:00N 38°13' E 015°15'0 0.0
2017-Sep-15 14:30N 38°13' E 015°15'0 0.0
2017-Sep-15 14:00N 38°13' E 015°15'0 0.0
2017-Sep-15 13:30N 38°13' E 015°15'0 0.0
2017-Sep-15 13:00N 38°13' E 015°15'0 0.0
2017-Sep-15 12:30N 38°13' E 015°15'0 0.0
2017-Sep-15 12:00N 38°13' E 015°15'0 0.0
2017-Sep-15 11:30N 38°13' E 015°15'0 0.0
2017-Sep-15 11:00N 38°13' E 015°15'0 0.0
2017-Sep-15 10:30N 38°13' E 015°15'0 0.0
2017-Sep-15 10:00N 38°13' E 015°15'0 0.0
2017-Sep-15 09:30N 38°13' E 015°15'0 0.0
2017-Sep-15 09:00N 38°13' E 015°15'0 0.0
2017-Sep-15 08:30N 38°13' E 015°15'0 0.0
2017-Sep-15 08:00N 38°13' E 015°15'0 0.0
2017-Sep-15 07:30N 38°13' E 015°15'0 0.0
2017-Sep-15 07:00N 38°13' E 015°15'0 0.0
2017-Sep-15 06:30N 38°13' E 015°15'0 0.0
2017-Sep-15 06:00N 38°13' E 015°15'0 0.0
2017-Sep-15 05:30N 38°13' E 015°15'0 0.0
2017-Sep-15 05:00N 38°13' E 015°15'0 0.0
2017-Sep-15 04:30N 38°13' E 015°15'0 0.0
2017-Sep-15 04:00N 38°13' E 015°15'0 0.0
2017-Sep-15 03:30N 38°13' E 015°15'0 0.0
2017-Sep-15 03:00N 38°13' E 015°15'0 0.0
2017-Sep-15 02:30N 38°13' E 015°15'0 0.0
2017-Sep-15 02:00N 38°13' E 015°15'0 0.0
2017-Sep-15 01:30N 38°13' E 015°15'0 0.0
2017-Sep-15 01:00N 38°13' E 015°15'0 0.0
2017-Sep-15 00:30N 38°13' E 015°15'0 0.0
2017-Sep-15 00:00N 38°13' E 015°15'0 0.0
2017-Sep-14 23:30N 38°13' E 015°15'0 0.0
2017-Sep-14 23:00N 38°13' E 015°15'0 0.0
2017-Sep-14 22:30N 38°13' E 015°15'0 0.0
2017-Sep-14 22:00N 38°13' E 015°15'0 0.0
2017-Sep-14 21:30N 38°13' E 015°15'0 0.0
2017-Sep-14 21:00N 38°13' E 015°15'0 0.0
2017-Sep-14 20:30N 38°13' E 015°15'0 0.0
2017-Sep-14 20:00N 38°13' E 015°15'0 0.0
2017-Sep-14 19:30N 38°13' E 015°15'0 0.0
2017-Sep-14 19:00N 38°13' E 015°15'0 0.0
2017-Sep-14 18:30N 38°13' E 015°15'0 0.0
2017-Sep-14 18:00N 38°13' E 015°15'0 0.0
2017-Sep-14 17:30N 38°13' E 015°15'0 0.0
2017-Sep-14 17:00N 38°13' E 015°15'0 0.0
2017-Sep-14 16:30N 38°13' E 015°15'0 0.0
2017-Sep-14 16:00N 38°13' E 015°15'0 0.0
2017-Sep-14 15:30N 38°13' E 015°15'0 0.0
2017-Sep-14 15:00N 38°13' E 015°15'0 0.0
2017-Sep-14 10:27N 38°13' E 015°15'0 0.0
2017-Sep-14 10:00N 38°13' E 015°15'0 0.0
2017-Sep-14 09:30N 38°13' E 015°15'0 0.0
2017-Sep-14 09:00N 38°13' E 015°15'0 0.0
2017-Sep-14 08:30N 38°13' E 015°15'0 0.0
2017-Sep-14 08:00N 38°13' E 015°15'0 0.0
2017-Sep-14 07:30N 38°13' E 015°15'0 0.0
2017-Sep-14 07:00N 38°13' E 015°15'0 0.0
2017-Sep-14 06:29N 38°13' E 015°15'0 0.0
2017-Sep-14 06:00N 38°13' E 015°15'0 0.0
2017-Sep-14 05:30N 38°13' E 015°15'0 0.0
2017-Sep-14 05:00N 38°13' E 015°15'0 0.0
2017-Sep-14 04:30N 38°13' E 015°15'0 0.0
2017-Sep-14 04:00N 38°13' E 015°15'0 0.0
2017-Sep-14 03:30N 38°13' E 015°15'0 0.0
2017-Sep-14 03:00N 38°13' E 015°15'0 0.0
2017-Sep-14 02:30N 38°13' E 015°15'0 0.0
2017-Sep-14 02:00N 38°13' E 015°15'0 0.0
2017-Sep-14 01:30N 38°13' E 015°15'0 0.0
2017-Sep-14 01:00N 38°13' E 015°15'0 0.0
2017-Sep-14 00:30N 38°13' E 015°15'0 0.0
2017-Sep-14 00:00N 38°13' E 015°15'0 0.0
2017-Sep-13 23:30N 38°13' E 015°15'0 0.0
2017-Sep-13 23:00N 38°13' E 015°15'0 0.0
2017-Sep-13 22:30N 38°13' E 015°15'0 0.0
2017-Sep-13 22:00N 38°13' E 015°15'0 0.0
2017-Sep-13 21:30N 38°13' E 015°15'0 0.0
2017-Sep-13 21:00N 38°13' E 015°15'0 0.0
2017-Sep-13 20:30N 38°13' E 015°15'0 0.0
2017-Sep-13 20:00N 38°13' E 015°15'0 0.0
2017-Sep-13 19:30N 38°13' E 015°15'0 0.0
2017-Sep-13 19:00N 38°13' E 015°15'0 0.0
2017-Sep-13 18:30N 38°13' E 015°15'0 0.0
2017-Sep-13 18:00N 38°13' E 015°15'0 0.0
2017-Sep-13 17:30N 38°13' E 015°15'0 0.0
2017-Sep-13 17:00N 38°13' E 015°15'0 0.0
2017-Sep-13 16:30N 38°13' E 015°15'0 0.0
2017-Sep-13 16:00N 38°13' E 015°15'0 0.0
2017-Sep-13 15:30N 38°13' E 015°15'0 0.0
2017-Sep-13 15:00N 38°13' E 015°15'0 0.0
2017-Sep-13 14:30N 38°13' E 015°15'0 0.0
2017-Sep-13 14:00N 38°13' E 015°15'0 0.0
2017-Sep-13 13:30N 38°13' E 015°15'0 0.0
2017-Sep-13 13:00N 38°13' E 015°15'0 0.0
2017-Sep-13 12:30N 38°13' E 015°15'0 0.0
2017-Sep-13 12:00N 38°13' E 015°15'0 0.0
2017-Sep-13 11:30N 38°13' E 015°15'0 0.0
2017-Sep-13 11:00N 38°13' E 015°15'0 0.0
2017-Sep-13 10:30N 38°13' E 015°15'0 0.0
2017-Sep-13 10:00N 38°13' E 015°15'0 0.0
2017-Sep-13 09:30N 38°13' E 015°15'0 0.0
2017-Sep-13 09:00N 38°13' E 015°15'0 0.0
2017-Sep-13 08:30N 38°13' E 015°15'0 0.0
2017-Sep-13 08:00N 38°13' E 015°15'0 0.0
2017-Sep-13 07:30N 38°13' E 015°15'0 0.0
2017-Sep-13 07:00N 38°13' E 015°15'0 0.0
2017-Sep-13 06:30N 38°13' E 015°15'0 0.0
2017-Sep-13 06:00N 38°13' E 015°15'0 0.0
2017-Sep-13 05:30N 38°13' E 015°15'0 0.0
2017-Sep-13 05:00N 38°13' E 015°15'0 0.0
2017-Sep-13 04:30N 38°13' E 015°15'0 0.0
2017-Sep-13 04:00N 38°13' E 015°15'0 0.0
2017-Sep-13 03:30N 38°13' E 015°15'0 0.0
2017-Sep-13 03:00N 38°13' E 015°15'0 0.0
2017-Sep-13 02:30N 38°13' E 015°15'0 0.0
2017-Sep-13 02:00N 38°13' E 015°15'0 0.0
2017-Sep-13 01:30N 38°13' E 015°15'0 0.0
2017-Sep-13 01:00N 38°13' E 015°15'0 0.0
2017-Sep-13 00:30N 38°13' E 015°15'0 0.0
2017-Sep-13 00:00N 38°13' E 015°15'0 0.0
2017-Sep-12 23:30N 38°13' E 015°15'0 0.0
2017-Sep-12 23:00N 38°13' E 015°15'0 0.0
2017-Sep-12 22:30N 38°13' E 015°15'0 0.0
2017-Sep-12 22:00N 38°13' E 015°15'0 0.0
2017-Sep-12 21:30N 38°13' E 015°15'0 0.0
2017-Sep-12 21:00N 38°13' E 015°15'0 0.0
2017-Sep-12 20:30N 38°13' E 015°15'0 0.0
2017-Sep-12 20:00N 38°13' E 015°15'0 0.0
2017-Sep-12 19:30N 38°13' E 015°15'0 0.0
2017-Sep-12 19:00N 38°13' E 015°15'0 0.0
2017-Sep-12 18:30N 38°13' E 015°15'0 0.0
2017-Sep-12 18:00N 38°13' E 015°15'0 0.0
2017-Sep-12 17:30N 38°13' E 015°15'0 0.0
2017-Sep-12 17:00N 38°13' E 015°15'0 0.0
2017-Sep-12 16:30N 38°13' E 015°15'0 0.0
2017-Sep-12 16:00N 38°13' E 015°15'0 0.0
2017-Sep-12 15:30N 38°13' E 015°15'0 0.0
2017-Sep-12 13:28N 38°13' E 015°15'0 0.0
2017-Sep-12 13:00N 38°13' E 015°15'0 0.0
2017-Sep-12 12:30N 38°13' E 015°15'0 0.0
2017-Sep-12 12:00N 38°13' E 015°15'0 0.0
2017-Sep-12 11:30N 38°13' E 015°15'0 0.0
2017-Sep-12 11:00N 38°13' E 015°15'0 0.0
2017-Sep-12 10:30N 38°13' E 015°15'0 0.0
2017-Sep-12 10:00N 38°13' E 015°15'0 0.0
2017-Sep-12 09:30N 38°13' E 015°15'0 0.0
2017-Sep-12 09:00N 38°13' E 015°15'0 0.0
2017-Sep-12 08:30N 38°13' E 015°15'0 0.0
2017-Sep-12 08:00N 38°13' E 015°15'0 0.0
2017-Sep-12 07:30N 38°13' E 015°15'0 0.0
2017-Sep-12 07:00N 38°13' E 015°15'0 0.0
2017-Sep-12 06:30N 38°13' E 015°15'0 0.0
2017-Sep-12 06:00N 38°13' E 015°15'0 0.0
2017-Sep-12 05:30N 38°13' E 015°15'0 0.0
2017-Sep-12 05:00N 38°13' E 015°15'0 0.0
2017-Sep-12 04:30N 38°13' E 015°15'0 0.0
2017-Sep-12 04:00N 38°13' E 015°15'0 0.0
2017-Sep-12 03:30N 38°13' E 015°15'0 0.0
2017-Sep-12 03:00N 38°13' E 015°15'0 0.0
2017-Sep-12 02:30N 38°13' E 015°15'0 0.0
2017-Sep-12 02:00N 38°13' E 015°15'  
Track history (hours):
 
Tides and Currents Weather Stations Pressure Air Temp Water Temp Dewpoint Dewpoint Depression Visibility Wind Speed Wind Dir Waves Ship Positions

Bonum

Last reported at 2017-Sep-22 02:00 UTC. Time now 2017-Nov-20 19:28 UTC.
Position N 38°13' E 015°15'.
Warning: this ship's position is 59 days out of date.

Length 38 m; draft 3.2 m.

MMSI: 255910770.

Date/timePositionNaut miles runAvg speedWind from/ knotsBaromVisibWave heightAir tempDewpointWater temp
2017-Sep-22 02:00N 38°13' E 015°15'0 0.0
2017-Sep-22 01:30N 38°13' E 015°15'0 0.0
2017-Sep-22 01:00N 38°13' E 015°15'0 0.0
2017-Sep-22 00:30N 38°13' E 015°15'0 0.0
2017-Sep-22 00:00N 38°13' E 015°15'0 0.0
2017-Sep-21 23:30N 38°13' E 015°15'0 0.0
2017-Sep-21 23:00N 38°13' E 015°15'0 0.0
2017-Sep-21 22:30N 38°13' E 015°15'0 0.0
2017-Sep-21 22:00N 38°13' E 015°15'0 0.0
2017-Sep-21 21:30N 38°13' E 015°15'0 0.0
2017-Sep-21 21:00N 38°13' E 015°15'0 0.0
2017-Sep-21 20:30N 38°13' E 015°15'0 0.0
2017-Sep-21 20:00N 38°13' E 015°15'0 0.0
2017-Sep-21 19:30N 38°13' E 015°15'0 0.0
2017-Sep-21 19:00N 38°13' E 015°15'0 0.0
2017-Sep-21 18:30N 38°13' E 015°15'0 0.0
2017-Sep-21 18:00N 38°13' E 015°15'0 0.0
2017-Sep-21 17:30N 38°13' E 015°15'0 0.0
2017-Sep-21 17:00N 38°13' E 015°15'0 0.0
2017-Sep-21 16:30N 38°13' E 015°15'0 0.0
2017-Sep-21 16:00N 38°13' E 015°15'0 0.0
2017-Sep-21 15:30N 38°13' E 015°15'0 0.0
2017-Sep-21 15:00N 38°13' E 015°15'0 0.0
2017-Sep-21 14:30N 38°13' E 015°15'0 0.0
2017-Sep-21 14:00N 38°13' E 015°15'0 0.0
2017-Sep-21 13:30N 38°13' E 015°15'0 0.0
2017-Sep-21 13:00N 38°13' E 015°15'0 0.0
2017-Sep-21 12:30N 38°13' E 015°15'0 0.0
2017-Sep-21 12:00N 38°13' E 015°15'0 0.0
2017-Sep-21 11:30N 38°13' E 015°15'0 0.6
2017-Sep-21 11:00N 38°13' E 015°15'4 7.7
2017-Sep-21 10:30N 38°17' E 015°15'5 9.6
2017-Sep-21 10:00N 38°20' E 015°10'510.0
2017-Sep-21 09:29N 38°23' E 015°05'510.3
2017-Sep-21 09:00N 38°26' E 014°60'2 4.4
2017-Sep-21 08:29N 38°28' E 014°58'0 0.0
2017-Sep-21 07:27N 38°28' E 014°58'0 0.0
2017-Sep-21 05:35N 38°28' E 014°58'0 0.0
2017-Sep-21 05:29N 38°28' E 014°58'0 0.0
2017-Sep-21 04:58N 38°28' E 014°58'0 0.0
2017-Sep-21 04:28N 38°28' E 014°58'0 0.1
2017-Sep-21 03:55N 38°28' E 014°58'0 0.0
2017-Sep-21 03:23N 38°28' E 014°58'0 0.0
2017-Sep-21 02:50N 38°28' E 014°58'0 0.0
2017-Sep-21 02:13N 38°28' E 014°58'0 0.0
2017-Sep-21 01:57N 38°28' E 014°58'0 0.0
2017-Sep-21 01:20N 38°28' E 014°58'0 0.1
2017-Sep-21 01:00N 38°28' E 014°58'0 0.0
2017-Sep-21 00:23N 38°28' E 014°58'0 0.1
2017-Sep-20 23:59N 38°28' E 014°58'0 0.0
2017-Sep-20 23:30N 38°28' E 014°58'0 0.0
2017-Sep-20 23:00N 38°28' E 014°58'0 0.0
2017-Sep-20 22:30N 38°28' E 014°58'0 0.0
2017-Sep-20 22:00N 38°28' E 014°58'0 0.0
2017-Sep-20 21:18N 38°28' E 014°58'0 0.1
2017-Sep-20 21:00N 38°28' E 014°58'0 0.0
2017-Sep-20 20:29N 38°28' E 014°58'0 0.0
2017-Sep-20 20:00N 38°28' E 014°58'0 0.0
2017-Sep-20 19:29N 38°28' E 014°58'0 0.0
2017-Sep-20 18:59N 38°28' E 014°58'0 0.0
2017-Sep-20 18:30N 38°28' E 014°58'0 0.0
2017-Sep-20 17:59N 38°28' E 014°58'0 0.0
2017-Sep-20 17:30N 38°28' E 014°58'0 0.0
2017-Sep-20 16:58N 38°28' E 014°58'0 0.0
2017-Sep-20 16:26N 38°28' E 014°58'0 0.1
2017-Sep-20 15:59N 38°28' E 014°58'1 2.8
2017-Sep-20 15:30N 38°28' E 014°59'5 9.9
2017-Sep-20 14:58N 38°33' E 015°01'6 2.0
2017-Sep-20 12:11N 38°38' E 015°05'0 0.1
2017-Sep-20 11:55N 38°38' E 015°05'0 0.0
2017-Sep-20 11:10N 38°38' E 015°05'0 0.0
2017-Sep-20 10:17N 38°38' E 015°05'0 0.0
2017-Sep-20 09:50N 38°38' E 015°05'0 0.1
2017-Sep-20 09:29N 38°38' E 015°05'0 0.0
2017-Sep-20 08:20N 38°38' E 015°05'1 2.7
2017-Sep-20 08:00N 38°38' E 015°04'0 0.0
2017-Sep-20 07:25N 38°38' E 015°04'0 0.0
2017-Sep-20 06:59N 38°38' E 015°04'0 0.0
2017-Sep-20 06:29N 38°38' E 015°04'0 0.0
2017-Sep-20 05:58N 38°38' E 015°04'0 0.0
2017-Sep-20 05:28N 38°38' E 015°04'0 0.0
2017-Sep-20 04:58N 38°38' E 015°04'0 0.0
2017-Sep-20 04:30N 38°38' E 015°04'0 0.0
2017-Sep-20 04:01N 38°38' E 015°04'0 0.0
2017-Sep-20 03:27N 38°38' E 015°04'0 0.1
2017-Sep-20 02:59N 38°38' E 015°04'0 0.1
2017-Sep-20 02:29N 38°38' E 015°04'0 0.1
2017-Sep-20 01:58N 38°38' E 015°04'0 0.1
2017-Sep-20 01:30N 38°38' E 015°04'0 0.1
2017-Sep-20 00:58N 38°38' E 015°04'0 0.1
2017-Sep-20 00:30N 38°38' E 015°04'0 0.0
2017-Sep-19 23:59N 38°38' E 015°04'0 0.0
2017-Sep-19 23:29N 38°38' E 015°04'0 0.0
2017-Sep-19 23:00N 38°38' E 015°04'0 0.0
2017-Sep-19 22:30N 38°38' E 015°04'0 0.0
2017-Sep-19 22:00N 38°38' E 015°04'0 0.0
2017-Sep-19 21:30N 38°38' E 015°04'0 0.0
2017-Sep-19 20:55N 38°38' E 015°04'0 0.0
2017-Sep-19 20:30N 38°38' E 015°04'0 0.1
2017-Sep-19 20:00N 38°38' E 015°04'0 0.1
2017-Sep-19 19:29N 38°38' E 015°04'0 0.0
2017-Sep-19 18:50N 38°38' E 015°04'0 0.0
2017-Sep-19 18:30N 38°38' E 015°04'0 0.0
2017-Sep-19 17:54N 38°38' E 015°04'0 0.0
2017-Sep-19 17:25N 38°38' E 015°04'0 0.0
2017-Sep-19 16:52N 38°37' E 015°04'0 0.0
2017-Sep-19 15:45N 38°38' E 015°04'0 0.5
2017-Sep-19 15:22N 38°37' E 015°04'3 8.6
2017-Sep-19 15:00N 38°40' E 015°06'510.1
2017-Sep-19 14:30N 38°44' E 015°11'4 7.7
2017-Sep-19 14:01N 38°47' E 015°14'1 0.2
2017-Sep-19 09:56N 38°47' E 015°14'23 8.2
2017-Sep-19 07:04N 38°28' E 014°58'0 0.0
2017-Sep-19 01:52N 38°28' E 014°58'0 0.0
2017-Sep-18 14:34N 38°28' E 014°58'0 0.0
2017-Sep-18 14:28N 38°28' E 014°58'0 0.0
2017-Sep-18 13:23N 38°28' E 014°58'0 0.3
2017-Sep-18 12:19N 38°28' E 014°58'0 0.0
2017-Sep-18 11:52N 38°28' E 014°58'0 0.0
2017-Sep-18 11:26N 38°28' E 014°58'0 0.0
2017-Sep-18 10:42N 38°28' E 014°58'0 0.0
2017-Sep-18 09:56N 38°28' E 014°58'3 5.5
2017-Sep-18 09:22N 38°25' E 014°58'3 9.8
2017-Sep-18 09:00N 38°23' E 015°02'510.5
2017-Sep-18 08:30N 38°21' E 015°08'510.3
2017-Sep-18 08:00N 38°18' E 015°13'5 9.1
2017-Sep-18 07:31N 38°14' E 015°15'1 0.6
2017-Sep-18 06:04N 38°13' E 015°15'0 0.0
2017-Sep-18 06:00N 38°13' E 015°15'0 0.0
2017-Sep-18 05:30N 38°13' E 015°15'0 0.0
2017-Sep-18 05:00N 38°13' E 015°15'0 0.0
2017-Sep-18 04:30N 38°13' E 015°15'0 0.0
2017-Sep-18 04:00N 38°13' E 015°15'0 0.0
2017-Sep-18 03:30N 38°13' E 015°15'0 0.0
2017-Sep-18 03:00N 38°13' E 015°15'0 0.0
2017-Sep-18 02:30N 38°13' E 015°15'0 0.0
2017-Sep-18 02:00N 38°13' E 015°15'0 0.0
2017-Sep-18 01:30N 38°13' E 015°15'0 0.0
2017-Sep-18 01:00N 38°13' E 015°15'0 0.0
2017-Sep-18 00:30N 38°13' E 015°15'0 0.0
2017-Sep-18 00:00N 38°13' E 015°15'0 0.0
2017-Sep-17 23:30N 38°13' E 015°15'0 0.0
2017-Sep-17 23:00N 38°13' E 015°15'0 0.0
2017-Sep-17 22:30N 38°13' E 015°15'0 0.0
2017-Sep-17 22:00N 38°13' E 015°15'0 0.0
2017-Sep-17 21:30N 38°13' E 015°15'0 0.0
2017-Sep-17 21:00N 38°13' E 015°15'0 0.0
2017-Sep-17 20:30N 38°13' E 015°15'0 0.0
2017-Sep-17 20:00N 38°13' E 015°15'0 0.0
2017-Sep-17 19:30N 38°13' E 015°15'0 0.0
2017-Sep-17 19:00N 38°13' E 015°15'0 0.0
2017-Sep-17 18:30N 38°13' E 015°15'0 0.0
2017-Sep-17 18:00N 38°13' E 015°15'0 0.0
2017-Sep-17 17:30N 38°13' E 015°15'0 0.0
2017-Sep-17 17:00N 38°13' E 015°15'0 0.0
2017-Sep-17 16:30N 38°13' E 015°15'0 0.0
2017-Sep-17 16:00N 38°13' E 015°15'0 0.0
2017-Sep-17 13:57N 38°13' E 015°15'0 0.0
2017-Sep-17 13:30N 38°13' E 015°15'0 0.0
2017-Sep-17 13:00N 38°13' E 015°15'0 0.0
2017-Sep-17 12:30N 38°13' E 015°15'0 0.0
2017-Sep-17 12:00N 38°13' E 015°15'0 0.0
2017-Sep-17 11:30N 38°13' E 015°15'0 0.0
2017-Sep-17 11:00N 38°13' E 015°15'0 0.0
2017-Sep-17 10:30N 38°13' E 015°15'0 0.0
2017-Sep-17 10:00N 38°13' E 015°15'0 0.0
2017-Sep-17 09:30N 38°13' E 015°15'0 0.0
2017-Sep-17 09:00N 38°13' E 015°15'0 0.0
2017-Sep-17 08:30N 38°13' E 015°15'0 0.0
2017-Sep-17 08:00N 38°13' E 015°15'0 0.0
2017-Sep-17 07:30N 38°13' E 015°15'0 0.0
2017-Sep-17 07:00N 38°13' E 015°15'0 0.0
2017-Sep-17 06:30N 38°13' E 015°15'0 0.0
2017-Sep-17 06:00N 38°13' E 015°15'0 0.0
2017-Sep-17 05:30N 38°13' E 015°15'0 0.0
2017-Sep-17 05:00N 38°13' E 015°15'0 0.0
2017-Sep-17 04:30N 38°13' E 015°15'0 0.0
2017-Sep-17 04:00N 38°13' E 015°15'0 0.0
2017-Sep-17 03:30N 38°13' E 015°15'0 0.0
2017-Sep-17 03:00N 38°13' E 015°15'0 0.0
2017-Sep-17 02:30N 38°13' E 015°15'0 0.0
2017-Sep-17 02:00N 38°13' E 015°15'0 0.0
2017-Sep-17 01:30N 38°13' E 015°15'0 0.0
2017-Sep-17 01:00N 38°13' E 015°15'0 0.0
2017-Sep-17 00:30N 38°13' E 015°15'0 0.0
2017-Sep-17 00:00N 38°13' E 015°15'0 0.0
2017-Sep-16 23:30N 38°13' E 015°15'0 0.0
2017-Sep-16 23:00N 38°13' E 015°15'0 0.0
2017-Sep-16 22:30N 38°13' E 015°15'0 0.0
2017-Sep-16 22:00N 38°13' E 015°15'0 0.0
2017-Sep-16 21:30N 38°13' E 015°15'0 0.0
2017-Sep-16 21:00N 38°13' E 015°15'0 0.0
2017-Sep-16 20:30N 38°13' E 015°15'0 0.0
2017-Sep-16 20:00N 38°13' E 015°15'0 0.0
2017-Sep-16 19:30N 38°13' E 015°15'0 0.0
2017-Sep-16 19:00N 38°13' E 015°15'0 0.0
2017-Sep-16 18:30N 38°13' E 015°15'0 0.0
2017-Sep-16 18:00N 38°13' E 015°15'0 0.0
2017-Sep-16 17:30N 38°13' E 015°15'0 0.0
2017-Sep-16 17:00N 38°13' E 015°15'0 0.0
2017-Sep-16 16:30N 38°13' E 015°15'0 0.0
2017-Sep-16 16:00N 38°13' E 015°15'0 0.0
2017-Sep-16 15:30N 38°13' E 015°15'0 0.0
2017-Sep-16 15:00N 38°13' E 015°15'0 0.0
2017-Sep-16 14:30N 38°13' E 015°15'0 0.0
2017-Sep-16 14:00N 38°13' E 015°15'0 0.0
2017-Sep-16 13:30N 38°13' E 015°15'0 0.0
2017-Sep-16 13:00N 38°13' E 015°15'0 0.0
2017-Sep-16 12:30N 38°13' E 015°15'0 0.0
2017-Sep-16 12:00N 38°13' E 015°15'0 0.0
2017-Sep-16 11:30N 38°13' E 015°15'0 0.0
2017-Sep-16 11:00N 38°13' E 015°15'0 0.0
2017-Sep-16 10:30N 38°13' E 015°15'0 0.0
2017-Sep-16 09:14N 38°13' E 015°15'0 0.0
2017-Sep-16 09:00N 38°13' E 015°15'0 0.0
2017-Sep-16 08:30N 38°13' E 015°15'0 0.0
2017-Sep-16 08:00N 38°13' E 015°15'0 0.0
2017-Sep-16 07:30N 38°13' E 015°15'0 0.0
2017-Sep-16 07:00N 38°13' E 015°15'0 0.0
2017-Sep-16 06:30N 38°13' E 015°15'0 0.0
2017-Sep-16 06:00N 38°13' E 015°15'0 0.0
2017-Sep-16 05:30N 38°13' E 015°15'0 0.0
2017-Sep-16 05:00N 38°13' E 015°15'0 0.0
2017-Sep-16 04:30N 38°13' E 015°15'0 0.0
2017-Sep-16 04:00N 38°13' E 015°15'0 0.0
2017-Sep-16 03:30N 38°13' E 015°15'0 0.0
2017-Sep-16 03:00N 38°13' E 015°15'0 0.0
2017-Sep-16 02:30N 38°13' E 015°15'0 0.0
2017-Sep-16 02:00N 38°13' E 015°15'0 0.0
2017-Sep-16 01:30N 38°13' E 015°15'0 0.0
2017-Sep-16 01:00N 38°13' E 015°15'0 0.0
2017-Sep-16 00:30N 38°13' E 015°15'0 0.0
2017-Sep-16 00:00N 38°13' E 015°15'0 0.0
2017-Sep-15 23:30N 38°13' E 015°15'0 0.0
2017-Sep-15 23:00N 38°13' E 015°15'0 0.0
2017-Sep-15 22:30N 38°13' E 015°15'0 0.0
2017-Sep-15 22:00N 38°13' E 015°15'0 0.0
2017-Sep-15 21:30N 38°13' E 015°15'0 0.0
2017-Sep-15 21:00N 38°13' E 015°15'0 0.0
2017-Sep-15 20:30N 38°13' E 015°15'0 0.0
2017-Sep-15 20:00N 38°13' E 015°15'0 0.0
2017-Sep-15 19:30N 38°13' E 015°15'0 0.0
2017-Sep-15 19:00N 38°13' E 015°15'0 0.0
2017-Sep-15 18:30N 38°13' E 015°15'0 0.0
2017-Sep-15 18:00N 38°13' E 015°15'0 0.0
2017-Sep-15 17:30N 38°13' E 015°15'0 0.0
2017-Sep-15 17:00N 38°13' E 015°15'0 0.0
2017-Sep-15 16:30N 38°13' E 015°15'0 0.0
2017-Sep-15 16:00N 38°13' E 015°15'0 0.0
2017-Sep-15 15:30N 38°13' E 015°15'0 0.0
2017-Sep-15 15:00N 38°13' E 015°15'0 0.0
2017-Sep-15 14:30N 38°13' E 015°15'0 0.0
2017-Sep-15 14:00N 38°13' E 015°15'0 0.0
2017-Sep-15 13:30N 38°13' E 015°15'0 0.0
2017-Sep-15 13:00N 38°13' E 015°15'0 0.0
2017-Sep-15 12:30N 38°13' E 015°15'0 0.0
2017-Sep-15 12:00N 38°13' E 015°15'0 0.0
2017-Sep-15 11:30N 38°13' E 015°15'0 0.0
2017-Sep-15 11:00N 38°13' E 015°15'0 0.0
2017-Sep-15 10:30N 38°13' E 015°15'0 0.0
2017-Sep-15 10:00N 38°13' E 015°15'0 0.0
2017-Sep-15 09:30N 38°13' E 015°15'0 0.0
2017-Sep-15 09:00N 38°13' E 015°15'0 0.0
2017-Sep-15 08:30N 38°13' E 015°15'0 0.0
2017-Sep-15 08:00N 38°13' E 015°15'0 0.0
2017-Sep-15 07:30N 38°13' E 015°15'0 0.0
2017-Sep-15 07:00N 38°13' E 015°15'0 0.0
2017-Sep-15 06:30N 38°13' E 015°15'0 0.0
2017-Sep-15 06:00N 38°13' E 015°15'0 0.0
2017-Sep-15 05:30N 38°13' E 015°15'0 0.0
2017-Sep-15 05:00N 38°13' E 015°15'0 0.0
2017-Sep-15 04:30N 38°13' E 015°15'0 0.0
2017-Sep-15 04:00N 38°13' E 015°15'0 0.0
2017-Sep-15 03:30N 38°13' E 015°15'0 0.0
2017-Sep-15 03:00N 38°13' E 015°15'0 0.0
2017-Sep-15 02:30N 38°13' E 015°15'0 0.0
2017-Sep-15 02:00N 38°13' E 015°15'0 0.0
2017-Sep-15 01:30N 38°13' E 015°15'0 0.0
2017-Sep-15 01:00N 38°13' E 015°15'0 0.0
2017-Sep-15 00:30N 38°13' E 015°15'0 0.0
2017-Sep-15 00:00N 38°13' E 015°15'0 0.0
2017-Sep-14 23:30N 38°13' E 015°15'0 0.0
2017-Sep-14 23:00N 38°13' E 015°15'0 0.0
2017-Sep-14 22:30N 38°13' E 015°15'0 0.0
2017-Sep-14 22:00N 38°13' E 015°15'0 0.0
2017-Sep-14 21:30N 38°13' E 015°15'0 0.0
2017-Sep-14 21:00N 38°13' E 015°15'0 0.0
2017-Sep-14 20:30N 38°13' E 015°15'0 0.0
2017-Sep-14 20:00N 38°13' E 015°15'0 0.0
2017-Sep-14 19:30N 38°13' E 015°15'0 0.0
2017-Sep-14 19:00N 38°13' E 015°15'0 0.0
2017-Sep-14 18:30N 38°13' E 015°15'0 0.0
2017-Sep-14 18:00N 38°13' E 015°15'0 0.0
2017-Sep-14 17:30N 38°13' E 015°15'0 0.0
2017-Sep-14 17:00N 38°13' E 015°15'0 0.0
2017-Sep-14 16:30N 38°13' E 015°15'0 0.0
2017-Sep-14 16:00N 38°13' E 015°15'0 0.0
2017-Sep-14 15:30N 38°13' E 015°15'0 0.0
2017-Sep-14 15:00N 38°13' E 015°15'0 0.0
2017-Sep-14 10:27N 38°13' E 015°15'0 0.0
2017-Sep-14 10:00N 38°13' E 015°15'0 0.0
2017-Sep-14 09:30N 38°13' E 015°15'0 0.0
2017-Sep-14 09:00N 38°13' E 015°15'0 0.0
2017-Sep-14 08:30N 38°13' E 015°15'0 0.0
2017-Sep-14 08:00N 38°13' E 015°15'0 0.0
2017-Sep-14 07:30N 38°13' E 015°15'0 0.0
2017-Sep-14 07:00N 38°13' E 015°15'0 0.0
2017-Sep-14 06:29N 38°13' E 015°15'0 0.0
2017-Sep-14 06:00N 38°13' E 015°15'0 0.0
2017-Sep-14 05:30N 38°13' E 015°15'0 0.0
2017-Sep-14 05:00N 38°13' E 015°15'0 0.0
2017-Sep-14 04:30N 38°13' E 015°15'0 0.0
2017-Sep-14 04:00N 38°13' E 015°15'0 0.0
2017-Sep-14 03:30N 38°13' E 015°15'0 0.0
2017-Sep-14 03:00N 38°13' E 015°15'0 0.0
2017-Sep-14 02:30N 38°13' E 015°15'0 0.0
2017-Sep-14 02:00N 38°13' E 015°15'0 0.0
2017-Sep-14 01:30N 38°13' E 015°15'0 0.0
2017-Sep-14 01:00N 38°13' E 015°15'0 0.0
2017-Sep-14 00:30N 38°13' E 015°15'0 0.0
2017-Sep-14 00:00N 38°13' E 015°15'0 0.0
2017-Sep-13 23:30N 38°13' E 015°15'0 0.0
2017-Sep-13 23:00N 38°13' E 015°15'0 0.0
2017-Sep-13 22:30N 38°13' E 015°15'0 0.0
2017-Sep-13 22:00N 38°13' E 015°15'0 0.0
2017-Sep-13 21:30N 38°13' E 015°15'0 0.0
2017-Sep-13 21:00N 38°13' E 015°15'0 0.0
2017-Sep-13 20:30N 38°13' E 015°15'0 0.0
2017-Sep-13 20:00N 38°13' E 015°15'0 0.0
2017-Sep-13 19:30N 38°13' E 015°15'0 0.0
2017-Sep-13 19:00N 38°13' E 015°15'0 0.0
2017-Sep-13 18:30N 38°13' E 015°15'0 0.0
2017-Sep-13 18:00N 38°13' E 015°15'0 0.0
2017-Sep-13 17:30N 38°13' E 015°15'0 0.0
2017-Sep-13 17:00N 38°13' E 015°15'0 0.0
2017-Sep-13 16:30N 38°13' E 015°15'0 0.0
2017-Sep-13 16:00N 38°13' E 015°15'0 0.0
2017-Sep-13 15:30N 38°13' E 015°15'0 0.0
2017-Sep-13 15:00N 38°13' E 015°15'0 0.0
2017-Sep-13 14:30N 38°13' E 015°15'0 0.0
2017-Sep-13 14:00N 38°13' E 015°15'0 0.0
2017-Sep-13 13:30N 38°13' E 015°15'0 0.0
2017-Sep-13 13:00N 38°13' E 015°15'0 0.0
2017-Sep-13 12:30N 38°13' E 015°15'0 0.0
2017-Sep-13 12:00N 38°13' E 015°15'0 0.0
2017-Sep-13 11:30N 38°13' E 015°15'0 0.0
2017-Sep-13 11:00N 38°13' E 015°15'0 0.0
2017-Sep-13 10:30N 38°13' E 015°15'0 0.0
2017-Sep-13 10:00N 38°13' E 015°15'0 0.0
2017-Sep-13 09:30N 38°13' E 015°15'0 0.0
2017-Sep-13 09:00N 38°13' E 015°15'0 0.0
2017-Sep-13 08:30N 38°13' E 015°15'0 0.0
2017-Sep-13 08:00N 38°13' E 015°15'0 0.0
2017-Sep-13 07:30N 38°13' E 015°15'0 0.0
2017-Sep-13 07:00N 38°13' E 015°15'0 0.0
2017-Sep-13 06:30N 38°13' E 015°15'0 0.0
2017-Sep-13 06:00N 38°13' E 015°15'0 0.0
2017-Sep-13 05:30N 38°13' E 015°15'0 0.0
2017-Sep-13 05:00N 38°13' E 015°15'0 0.0
2017-Sep-13 04:30N 38°13' E 015°15'0 0.0
2017-Sep-13 04:00N 38°13' E 015°15'0 0.0
2017-Sep-13 03:30N 38°13' E 015°15'0 0.0
2017-Sep-13 03:00N 38°13' E 015°15'0 0.0
2017-Sep-13 02:30N 38°13' E 015°15'0 0.0
2017-Sep-13 02:00N 38°13' E 015°15'0 0.0
2017-Sep-13 01:30N 38°13' E 015°15'0 0.0
2017-Sep-13 01:00N 38°13' E 015°15'0 0.0
2017-Sep-13 00:30N 38°13' E 015°15'0 0.0
2017-Sep-13 00:00N 38°13' E 015°15'0 0.0
2017-Sep-12 23:30N 38°13' E 015°15'0 0.0
2017-Sep-12 23:00N 38°13' E 015°15'0 0.0
2017-Sep-12 22:30N 38°13' E 015°15'0 0.0
2017-Sep-12 22:00N 38°13' E 015°15'0 0.0
2017-Sep-12 21:30N 38°13' E 015°15'0 0.0
2017-Sep-12 21:00N 38°13' E 015°15'0 0.0
2017-Sep-12 20:30N 38°13' E 015°15'0 0.0
2017-Sep-12 20:00N 38°13' E 015°15'0 0.0
2017-Sep-12 19:30N 38°13' E 015°15'0 0.0
2017-Sep-12 19:00N 38°13' E 015°15'0 0.0
2017-Sep-12 18:30N 38°13' E 015°15'0 0.0
2017-Sep-12 18:00N 38°13' E 015°15'0 0.0
2017-Sep-12 17:30N 38°13' E 015°15'0 0.0
2017-Sep-12 17:00N 38°13' E 015°15'0 0.0
2017-Sep-12 16:30N 38°13' E 015°15'0 0.0
2017-Sep-12 16:00N 38°13' E 015°15'0 0.0
2017-Sep-12 15:30N 38°13' E 015°15'0 0.0
2017-Sep-12 13:28N 38°13' E 015°15'0 0.0
2017-Sep-12 13:00N 38°13' E 015°15'0 0.0
2017-Sep-12 12:30N 38°13' E 015°15'0 0.0
2017-Sep-12 12:00N 38°13' E 015°15'0 0.0
2017-Sep-12 11:30N 38°13' E 015°15'0 0.0
2017-Sep-12 11:00N 38°13' E 015°15'0 0.0
2017-Sep-12 10:30N 38°13' E 015°15'0 0.0
2017-Sep-12 10:00N 38°13' E 015°15'0 0.0
2017-Sep-12 09:30N 38°13' E 015°15'0 0.0
2017-Sep-12 09:00N 38°13' E 015°15'0 0.0
2017-Sep-12 08:30N 38°13' E 015°15'0 0.0
2017-Sep-12 08:00N 38°13' E 015°15'0 0.0
2017-Sep-12 07:30N 38°13' E 015°15'0 0.0
2017-Sep-12 07:00N 38°13' E 015°15'0 0.0
2017-Sep-12 06:30N 38°13' E 015°15'0 0.0
2017-Sep-12 06:00N 38°13' E 015°15'0 0.0
2017-Sep-12 05:30N 38°13' E 015°15'0 0.0
2017-Sep-12 05:00N 38°13' E 015°15'0 0.0
2017-Sep-12 04:30N 38°13' E 015°15'0 0.0
2017-Sep-12 04:00N 38°13' E 015°15'0 0.0
2017-Sep-12 03:30N 38°13' E 015°15'0 0.0
2017-Sep-12 03:00N 38°13' E 015°15'0 0.0
2017-Sep-12 02:30N 38°13' E 015°15'0 0.0
2017-Sep-12 02:00N 38°13' E 015°15'  

Dump ship's entire track history